Time;durP1;ratioP1;P1;durP2;ratioP2;P2;SDS_P1;SDS_P2;PMS_P1;PMS_P2;Temp;Humidity;BMP_temperature;BMP_pressure;BME280_temperature;BME280_humidity;BME280_pressure;Samples;Min_cycle;Max_cycle;Signal;HPM_P1;HPM_P2
2022/01/27 00:01:35;;;;;;;49.80;26.38;;;5.70;69.30;;;;;;5072156;28;20031;-68
2022/01/27 00:04:25;;;;;;;47.17;26.73;;;5.70;68.70;;;;;;5065922;28;20029;-68
2022/01/27 00:06:51;;;;;;;46.08;26.40;;;5.80;68.60;;;;;;5060300;28;20247;-67
2022/01/27 00:09:30;;;;;;;50.22;28.65;;;5.80;68.50;;;;;;5064039;28;20035;-66
2022/01/27 00:11:55;;;;;;;51.58;29.58;;;5.70;68.50;;;;;;5069703;28;20036;-67
2022/01/27 00:14:22;;;;;;;50.40;26.90;;;5.70;68.60;;;;;;5071731;28;20028;-67
2022/01/27 00:16:57;;;;;;;50.42;27.23;;;5.70;68.30;;;;;;5076662;28;20484;-67
2022/01/27 00:19:24;;;;;;;46.47;26.45;;;5.80;68.30;;;;;;5055841;28;20024;-67
2022/01/27 00:21:50;;;;;;;45.08;26.73;;;5.80;68.20;;;;;;5071403;28;20046;-67
2022/01/27 00:24:16;;;;;;;47.42;26.55;;;5.80;68.10;;;;;;5069953;28;20033;-66
2022/01/27 00:26:42;;;;;;;50.65;28.65;;;5.80;68.00;;;;;;5071109;28;20478;-67
2022/01/27 00:29:07;;;;;;;52.58;28.27;;;5.80;68.10;;;;;;5069385;28;20020;-67
2022/01/27 00:31:33;;;;;;;51.80;27.73;;;5.90;68.20;;;;;;5071647;28;20435;-66
2022/01/27 00:34:03;;;;;;;43.65;25.33;;;5.90;67.80;;;;;;5048842;28;20687;-67
2022/01/27 00:36:30;;;;;;;50.90;28.02;;;5.90;67.70;;;;;;5069449;28;20027;-66
2022/01/27 00:38:56;;;;;;;48.90;27.75;;;5.80;67.80;;;;;;5069300;28;20122;-67
2022/01/27 00:41:23;;;;;;;51.67;27.48;;;5.90;67.70;;;;;;5069470;28;20068;-67
2022/01/27 00:43:50;;;;;;;49.75;28.75;;;5.90;67.70;;;;;;5068301;28;20017;-66
2022/01/27 00:46:17;;;;;;;49.35;28.08;;;5.90;67.60;;;;;;5052246;28;20436;-66
2022/01/27 00:48:47;;;;;;;50.80;27.48;;;5.90;67.70;;;;;;5060048;28;20020;-66
2022/01/27 00:51:20;;;;;;;46.95;26.85;;;5.80;67.50;;;;;;5052486;28;20477;-71
2022/01/27 00:54:05;;;;;;;53.10;27.80;;;5.80;67.40;;;;;;5054280;28;20043;-67
2022/01/27 00:56:51;;;;;;;50.20;27.23;;;5.70;67.70;;;;;;5078086;28;20024;-66
2022/01/27 01:04:38;;;;;;;51.03;26.45;;;5.60;68.40;;;;;;5069752;28;20028;-66
2022/01/27 01:07:06;;;;;;;48.78;26.80;;;5.50;68.30;;;;;;5054253;28;20123;-66
2022/01/27 01:17:24;;;;;;;54.78;27.48;;;5.50;68.90;;;;;;5073045;28;20085;-65
2022/01/27 01:33:11;;;;;;;55.25;28.63;;;5.70;68.90;;;;;;5067038;28;20036;-69
2022/01/27 01:35:52;;;;;;;54.13;29.20;;;5.70;69.00;;;;;;5076778;28;20377;-66
2022/01/27 01:38:20;;;;;;;55.55;29.92;;;5.70;69.00;;;;;;5084211;28;20047;-66
2022/01/27 01:40:51;;;;;;;53.75;29.10;;;5.60;69.10;;;;;;5056029;28;20063;-66
2022/01/27 01:43:18;;;;;;;56.25;30.95;;;5.70;69.00;;;;;;5045201;28;20032;-66
2022/01/27 01:45:44;;;;;;;49.70;27.80;;;5.80;68.80;;;;;;5071951;28;20048;-65
2022/01/27 01:48:10;;;;;;;54.50;27.83;;;5.70;68.80;;;;;;5071825;28;20046;-66
2022/01/27 01:50:36;;;;;;;58.47;31.50;;;5.70;68.90;;;;;;5075813;28;20059;-67
2022/01/27 01:53:03;;;;;;;58.35;30.27;;;5.80;68.90;;;;;;5091588;28;20054;-68
2022/01/27 01:55:30;;;;;;;54.22;29.30;;;5.80;68.80;;;;;;5074076;28;20023;-66
2022/01/27 01:57:57;;;;;;;55.10;30.90;;;5.90;68.80;;;;;;5075504;28;20027;-67
2022/01/27 02:00:24;;;;;;;56.42;30.52;;;5.90;68.60;;;;;;5092741;28;20047;-66
2022/01/27 02:02:50;;;;;;;58.38;29.10;;;5.90;68.40;;;;;;5056986;28;20382;-66
2022/01/27 02:05:18;;;;;;;54.40;29.60;;;5.90;68.50;;;;;;5069988;28;20151;-65
2022/01/27 02:08:28;;;;;;;54.05;29.63;;;5.80;68.70;;;;;;5048781;28;20044;-66
2022/01/27 02:19:23;;;;;;;57.22;30.67;;;5.70;69.00;;;;;;5069723;28;20031;-65
2022/01/27 02:21:53;;;;;;;58.53;31.33;;;5.70;69.30;;;;;;5066970;28;20040;-66
2022/01/27 02:24:20;;;;;;;60.08;30.17;;;5.70;69.30;;;;;;5090545;28;20344;-66
2022/01/27 02:26:49;;;;;;;63.45;30.75;;;5.70;69.30;;;;;;5092278;28;20388;-66
2022/01/27 02:29:19;;;;;;;61.88;30.38;;;5.80;69.20;;;;;;5092258;28;20036;-67
2022/01/27 02:31:47;;;;;;;59.03;30.88;;;5.80;69.00;;;;;;5113148;28;20015;-66
2022/01/27 02:34:13;;;;;;;57.22;29.95;;;5.80;68.90;;;;;;5103190;28;20038;-65
2022/01/27 02:36:39;;;;;;;57.20;29.85;;;5.80;68.80;;;;;;5091946;28;20024;-65
2022/01/27 02:39:07;;;;;;;64.22;30.92;;;5.80;69.30;;;;;;5088507;28;20089;-66
2022/01/27 02:41:51;;;;;;;54.60;29.13;;;5.80;68.80;;;;;;5092954;28;20017;-65
2022/01/27 02:44:26;;;;;;;60.28;30.50;;;5.70;68.90;;;;;;5095235;28;20085;-66
2022/01/27 02:46:51;;;;;;;63.95;31.65;;;5.70;69.00;;;;;;5097461;28;20032;-66
2022/01/27 02:49:18;;;;;;;60.42;30.55;;;5.70;69.10;;;;;;5092095;28;20401;-65
2022/01/27 02:51:44;;;;;;;57.42;29.98;;;5.70;69.10;;;;;;5091142;28;20020;-65
2022/01/27 02:54:09;;;;;;;56.78;29.95;;;5.80;69.20;;;;;;5091118;28;20103;-65
2022/01/27 02:56:38;;;;;;;65.25;30.08;;;5.80;69.00;;;;;;5089183;28;20032;-66
2022/01/27 02:59:04;;;;;;;58.72;29.80;;;5.80;68.90;;;;;;5089132;28;20028;-66
2022/01/27 03:01:30;;;;;;;53.25;28.60;;;5.70;68.90;;;;;;5099077;28;20032;-66
2022/01/27 03:03:56;;;;;;;57.58;29.38;;;5.60;69.10;;;;;;5091110;28;20020;-66
2022/01/27 03:06:21;;;;;;;59.20;31.38;;;5.60;69.50;;;;;;5089811;28;20469;-66
2022/01/27 03:08:47;;;;;;;57.03;29.92;;;5.60;69.50;;;;;;5090785;28;20385;-66
2022/01/27 03:11:33;;;;;;;56.83;29.25;;;5.70;69.40;;;;;;5105263;28;20100;-66
2022/01/27 03:13:59;;;;;;;54.42;29.35;;;5.60;69.30;;;;;;5098650;28;20321;-68
2022/01/27 03:16:25;;;;;;;53.70;29.83;;;5.60;69.30;;;;;;5089870;28;20031;-66
2022/01/27 03:18:51;;;;;;;55.63;29.55;;;5.70;69.30;;;;;;5110999;28;20408;-66
2022/01/27 03:21:16;;;;;;;56.97;28.02;;;5.60;69.30;;;;;;5087030;28;20058;-66
2022/01/27 03:23:42;;;;;;;55.67;28.85;;;5.60;69.40;;;;;;5071366;28;20028;-67
2022/01/27 03:26:08;;;;;;;56.03;29.77;;;5.60;69.50;;;;;;5069847;28;20028;-66
2022/01/27 03:28:33;;;;;;;58.08;29.23;;;5.50;69.40;;;;;;5052330;28;20031;-66
2022/01/27 03:30:59;;;;;;;54.72;29.27;;;5.60;69.60;;;;;;5067596;28;20033;-67
2022/01/27 03:33:25;;;;;;;52.35;29.00;;;5.60;69.60;;;;;;5070369;28;20051;-67
2022/01/27 03:35:51;;;;;;;51.70;28.83;;;5.60;69.50;;;;;;5052224;28;20024;-66
2022/01/27 03:38:17;;;;;;;59.65;28.92;;;5.70;69.30;;;;;;5070285;28;20020;-66
2022/01/27 03:40:42;;;;;;;59.13;29.90;;;5.60;69.20;;;;;;5077302;28;20489;-67
2022/01/27 03:43:09;;;;;;;55.78;28.42;;;5.60;69.20;;;;;;5091170;28;20024;-67
2022/01/27 03:45:35;;;;;;;57.95;29.25;;;5.60;69.40;;;;;;5091263;28;20032;-67
2022/01/27 03:48:01;;;;;;;55.33;30.35;;;5.60;69.30;;;;;;5061696;28;20063;-67
2022/01/27 03:50:27;;;;;;;58.17;29.00;;;5.60;69.50;;;;;;5076938;28;20474;-66
2022/01/27 03:52:53;;;;;;;56.03;29.08;;;5.60;69.50;;;;;;5070732;28;20025;-67
2022/01/27 03:55:19;;;;;;;51.10;28.75;;;5.60;69.40;;;;;;5070473;28;20484;-66
2022/01/27 03:57:44;;;;;;;50.53;27.33;;;5.60;69.30;;;;;;5054897;28;20389;-67
2022/01/27 04:00:11;;;;;;;53.97;29.00;;;5.50;69.20;;;;;;5088712;28;20024;-67
2022/01/27 04:02:41;;;;;;;53.67;30.10;;;5.50;69.40;;;;;;5083458;28;20017;-67
2022/01/27 04:05:07;;;;;;;55.45;28.80;;;5.50;69.50;;;;;;5069513;28;20037;-67
2022/01/27 04:07:33;;;;;;;55.75;29.63;;;5.50;69.40;;;;;;5080240;28;20040;-66
2022/01/27 04:09:59;;;;;;;54.80;29.55;;;5.50;69.30;;;;;;5063406;28;20054;-65
2022/01/27 04:12:25;;;;;;;50.38;26.98;;;5.60;69.30;;;;;;5072310;28;20115;-66
2022/01/27 04:14:50;;;;;;;49.92;26.40;;;5.60;69.00;;;;;;5090385;28;20136;-65
2022/01/27 04:17:16;;;;;;;55.03;29.05;;;5.50;69.00;;;;;;5090820;28;20373;-65
2022/01/27 04:19:42;;;;;;;48.90;27.00;;;5.50;69.30;;;;;;5090220;28;20481;-66
2022/01/27 04:22:07;;;;;;;54.05;28.08;;;5.50;69.10;;;;;;5072644;28;20052;-66
2022/01/27 04:24:33;;;;;;;44.47;25.40;;;5.50;68.90;;;;;;5089207;28;20028;-66
2022/01/27 04:27:05;;;;;;;48.15;26.55;;;5.50;68.70;;;;;;5089160;28;20123;-66
2022/01/27 04:29:34;;;;;;;49.40;27.40;;;5.50;68.90;;;;;;5101363;28;20115;-66
2022/01/27 04:32:01;;;;;;;50.80;26.27;;;5.50;68.70;;;;;;5106240;28;20024;-66
2022/01/27 04:34:27;;;;;;;50.75;27.38;;;5.50;68.40;;;;;;5090485;28;20031;-66
2022/01/27 04:36:55;;;;;;;50.58;27.08;;;5.50;68.60;;;;;;5090137;28;20029;-66
2022/01/27 04:39:38;;;;;;;47.95;26.95;;;5.40;68.60;;;;;;5092520;28;20054;-66
2022/01/27 04:42:11;;;;;;;49.75;27.05;;;5.40;68.40;;;;;;5104885;28;20035;-66
2022/01/27 04:44:46;;;;;;;47.88;26.42;;;5.40;68.50;;;;;;5113260;28;20034;-66
2022/01/27 04:47:18;;;;;;;45.20;25.92;;;5.50;68.20;;;;;;5113048;28;20023;-66
2022/01/27 04:49:45;;;;;;;58.40;27.98;;;5.40;68.50;;;;;;5094719;28;20031;-67
2022/01/27 04:52:11;;;;;;;52.63;28.77;;;5.40;68.60;;;;;;5096376;28;20027;-67
2022/01/27 04:57:04;;;;;;;49.40;27.60;;;5.40;68.90;;;;;;5115428;28;20031;-67
2022/01/27 04:59:36;;;;;;;51.78;28.73;;;5.30;68.90;;;;;;5096260;28;20032;-67
2022/01/27 05:02:07;;;;;;;59.88;30.00;;;5.30;69.20;;;;;;5089689;28;20170;-66
2022/01/27 05:04:38;;;;;;;49.78;28.00;;;5.30;69.20;;;;;;5092846;28;20024;-67
2022/01/27 05:07:04;;;;;;;51.75;29.52;;;5.30;69.00;;;;;;5093124;28;20028;-66
2022/01/27 05:09:30;;;;;;;53.35;29.20;;;5.30;69.20;;;;;;5091699;28;20097;-67
2022/01/27 05:12:08;;;;;;;50.80;28.35;;;5.20;69.10;;;;;;5092907;28;20024;-66
2022/01/27 05:14:34;;;;;;;47.47;27.40;;;5.30;69.10;;;;;;5107384;28;20024;-68
2022/01/27 05:16:59;;;;;;;46.92;26.40;;;5.30;68.90;;;;;;5102995;28;20019;-67
2022/01/27 05:19:25;;;;;;;49.95;25.73;;;5.30;68.70;;;;;;5105587;28;20027;-66
2022/01/27 05:21:50;;;;;;;48.58;26.80;;;5.20;69.10;;;;;;5104533;28;20119;-66
2022/01/27 05:24:17;;;;;;;48.80;27.13;;;5.20;69.20;;;;;;5089352;28;20542;-67
2022/01/27 05:26:43;;;;;;;53.05;26.65;;;5.10;69.40;;;;;;5092094;28;20024;-65
2022/01/27 05:29:09;;;;;;;47.85;27.42;;;5.00;69.50;;;;;;5056265;28;20386;-69
2022/01/27 05:31:36;;;;;;;51.53;27.90;;;5.10;69.60;;;;;;5073201;28;20516;-65
2022/01/27 05:34:02;;;;;;;53.13;28.85;;;5.00;69.50;;;;;;5086939;28;20032;-67
2022/01/27 05:36:27;;;;;;;51.28;28.50;;;5.00;69.60;;;;;;5092499;28;20051;-69
2022/01/27 05:38:53;;;;;;;54.08;28.33;;;5.00;69.40;;;;;;5093599;28;20329;-66
2022/01/27 05:41:19;;;;;;;54.15;28.65;;;5.10;69.60;;;;;;5059965;28;20093;-66
2022/01/27 05:43:44;;;;;;;53.70;28.58;;;5.10;69.50;;;;;;5067342;28;20499;-66
2022/01/27 05:46:10;;;;;;;52.83;28.92;;;5.10;69.40;;;;;;5071760;28;20390;-67
2022/01/27 05:48:36;;;;;;;52.83;28.38;;;5.20;69.50;;;;;;5056496;28;20381;-66
2022/01/27 05:51:03;;;;;;;57.42;29.38;;;5.10;69.50;;;;;;5092767;28;20488;-66
2022/01/27 05:53:30;;;;;;;61.45;31.58;;;5.10;69.80;;;;;;5051828;28;20123;-66
2022/01/27 05:55:57;;;;;;;54.10;30.00;;;5.10;69.80;;;;;;5072472;28;20090;-66
2022/01/27 05:58:22;;;;;;;58.63;31.55;;;5.10;69.80;;;;;;5071764;28;20035;-67
2022/01/27 06:00:48;;;;;;;67.25;31.13;;;5.20;69.70;;;;;;5073393;28;20029;-67
2022/01/27 06:03:14;;;;;;;58.50;30.88;;;5.10;69.60;;;;;;5052196;28;20036;-66
2022/01/27 06:05:40;;;;;;;64.00;32.33;;;5.20;69.80;;;;;;5072039;28;20021;-66
2022/01/27 06:08:05;;;;;;;61.85;32.45;;;5.20;69.60;;;;;;5072937;28;20029;-66
2022/01/27 06:10:31;;;;;;;61.38;33.28;;;5.20;69.40;;;;;;5063596;28;20029;-67
2022/01/27 06:12:57;;;;;;;60.15;33.25;;;5.30;69.50;;;;;;5071658;28;20039;-67
2022/01/27 06:15:27;;;;;;;62.83;33.10;;;5.30;69.30;;;;;;5066317;28;20028;-66
2022/01/27 06:17:53;;;;;;;62.65;31.85;;;5.30;69.30;;;;;;5083254;28;20576;-67
2022/01/27 06:20:19;;;;;;;60.80;32.38;;;5.30;69.10;;;;;;5069846;28;20024;-67
2022/01/27 06:22:46;;;;;;;59.03;32.95;;;5.20;69.30;;;;;;5071340;28;20064;-67
2022/01/27 06:25:14;;;;;;;68.45;32.90;;;5.20;69.50;;;;;;5085282;28;20040;-70
2022/01/27 06:27:39;;;;;;;63.72;33.38;;;5.20;69.50;;;;;;5083197;28;20551;-67
2022/01/27 06:30:07;;;;;;;66.97;34.60;;;5.20;69.70;;;;;;5087602;28;20028;-68
2022/01/27 06:32:34;;;;;;;63.40;32.42;;;5.30;69.70;;;;;;5091481;28;20020;-67
2022/01/27 06:35:03;;;;;;;72.82;35.25;;;5.30;69.20;;;;;;5086307;28;20054;-65
2022/01/27 06:37:31;;;;;;;64.43;33.47;;;5.30;69.30;;;;;;5098830;28;20024;-66
2022/01/27 06:39:57;;;;;;;65.60;34.22;;;5.30;69.90;;;;;;5092713;28;20104;-65
2022/01/27 06:42:23;;;;;;;66.18;35.13;;;5.30;69.10;;;;;;5091175;28;20020;-66
2022/01/27 06:44:49;;;;;;;67.63;33.50;;;5.30;69.40;;;;;;5090642;28;20387;-65
2022/01/27 06:47:15;;;;;;;65.70;33.10;;;5.30;69.40;;;;;;5091232;28;20039;-66
2022/01/27 06:49:41;;;;;;;63.78;32.67;;;5.30;69.40;;;;;;5092367;28;20024;-66
2022/01/27 06:52:07;;;;;;;63.83;33.95;;;5.30;69.40;;;;;;5077430;28;20038;-66
2022/01/27 06:54:33;;;;;;;59.80;33.35;;;5.20;69.50;;;;;;5090250;28;20222;-67
2022/01/27 06:57:00;;;;;;;70.55;34.67;;;5.20;69.50;;;;;;5089917;28;20098;-66
2022/01/27 06:59:26;;;;;;;519.50;51.13;;;5.20;69.70;;;;;;5097114;28;20115;-66
2022/01/27 07:01:52;;;;;;;80.40;34.35;;;5.20;69.80;;;;;;5107649;28;20114;-67
2022/01/27 07:04:18;;;;;;;70.25;36.03;;;5.20;69.70;;;;;;5076130;28;20457;-67
2022/01/27 07:06:44;;;;;;;66.00;36.58;;;5.20;69.70;;;;;;5080819;28;20032;-66
2022/01/27 07:09:10;;;;;;;67.22;36.83;;;5.30;69.70;;;;;;5091015;28;20028;-67
2022/01/27 07:11:36;;;;;;;66.95;35.45;;;5.30;69.50;;;;;;5084082;28;20024;-68
2022/01/27 07:14:01;;;;;;;72.55;37.30;;;5.30;69.70;;;;;;5091334;28;20042;-65
2022/01/27 07:16:27;;;;;;;73.60;36.75;;;5.20;69.90;;;;;;5090724;28;20028;-66
2022/01/27 07:18:53;;;;;;;67.15;35.60;;;5.20;70.00;;;;;;5090455;28;20103;-66
2022/01/27 07:21:19;;;;;;;71.20;37.05;;;5.20;69.80;;;;;;5074179;28;20116;-71
2022/01/27 07:23:46;;;;;;;71.75;36.70;;;5.30;69.70;;;;;;5043184;28;20123;-66
2022/01/27 07:26:13;;;;;;;71.25;36.72;;;5.40;69.40;;;;;;5057896;28;20056;-66
2022/01/27 07:28:39;;;;;;;73.93;38.25;;;5.50;69.10;;;;;;5053216;28;20327;-65
2022/01/27 07:31:05;;;;;;;71.13;37.22;;;5.60;68.90;;;;;;5053008;28;20039;-65
2022/01/27 07:33:31;;;;;;;67.80;36.67;;;5.80;68.10;;;;;;5058388;28;20394;-63
2022/01/27 07:35:57;;;;;;;68.10;35.47;;;5.80;67.50;;;;;;5066359;28;20038;-66
2022/01/27 07:38:23;;;;;;;71.53;36.65;;;5.80;67.10;;;;;;5036071;28;20466;-63
2022/01/27 07:40:50;;;;;;;72.78;36.58;;;5.80;67.10;;;;;;5056510;28;21625;-64
2022/01/27 07:43:16;;;;;;;65.60;37.00;;;5.80;67.10;;;;;;5060511;28;20167;-70
2022/01/27 07:45:42;;;;;;;65.00;37.33;;;6.10;67.10;;;;;;5064406;28;20032;-63
2022/01/27 07:48:08;;;;;;;60.97;34.83;;;7.00;66.90;;;;;;5040613;28;20027;-64
2022/01/27 07:50:34;;;;;;;60.33;36.00;;;7.80;62.30;;;;;;5054024;28;20029;-64
2022/01/27 07:53:00;;;;;;;66.20;35.67;;;8.40;61.00;;;;;;5040265;28;20074;-69
2022/01/27 07:55:26;;;;;;;70.25;38.28;;;9.10;59.40;;;;;;5077355;28;20024;-64
2022/01/27 07:57:52;;;;;;;62.67;36.05;;;9.40;56.60;;;;;;5074249;28;20051;-67
2022/01/27 08:00:18;;;;;;;60.33;35.05;;;9.30;56.30;;;;;;5035610;28;20028;-67
2022/01/27 08:02:45;;;;;;;63.53;37.08;;;9.40;55.80;;;;;;5061494;28;20191;-68
2022/01/27 08:05:12;;;;;;;65.45;36.85;;;9.40;56.00;;;;;;5060730;28;20032;-67
2022/01/27 08:07:38;;;;;;;61.88;34.50;;;9.20;56.10;;;;;;5070404;28;20037;-68
2022/01/27 08:10:04;;;;;;;57.33;34.85;;;8.90;55.70;;;;;;5060973;28;20037;-68
2022/01/27 08:12:30;;;;;;;55.83;34.28;;;8.50;56.50;;;;;;5057612;28;20021;-68
2022/01/27 08:14:56;;;;;;;60.30;34.60;;;8.30;57.00;;;;;;5055604;28;20120;-69
2022/01/27 08:17:22;;;;;;;63.60;34.60;;;8.00;57.40;;;;;;5059415;28;20472;-68
2022/01/27 08:19:48;;;;;;;63.17;35.55;;;7.90;57.90;;;;;;5062803;28;20535;-70
2022/01/27 08:22:14;;;;;;;63.90;33.45;;;7.80;58.00;;;;;;5058241;28;20110;-69
2022/01/27 08:24:40;;;;;;;62.05;34.20;;;7.70;58.10;;;;;;5093980;28;20102;-68
2022/01/27 08:27:09;;;;;;;54.72;32.75;;;7.60;58.20;;;;;;5104336;28;20031;-69
2022/01/27 08:29:40;;;;;;;60.60;34.47;;;7.60;58.40;;;;;;5090985;28;20099;-68
2022/01/27 08:32:10;;;;;;;55.58;33.35;;;7.60;58.60;;;;;;5090619;28;20024;-67
2022/01/27 08:34:41;;;;;;;65.85;33.00;;;7.60;58.50;;;;;;5092151;28;20024;-68
2022/01/27 08:37:18;;;;;;;63.65;33.28;;;7.50;58.50;;;;;;5085729;28;20032;-68
2022/01/27 08:39:46;;;;;;;60.05;32.03;;;7.50;58.60;;;;;;5089687;28;20024;-70
2022/01/27 08:42:12;;;;;;;58.17;32.38;;;7.50;59.10;;;;;;5089112;28;20420;-68
2022/01/27 08:44:38;;;;;;;56.50;31.65;;;7.50;58.90;;;;;;5092171;28;20098;-69
2022/01/27 08:47:05;;;;;;;57.80;33.47;;;7.60;58.90;;;;;;5075402;28;20519;-68
2022/01/27 08:49:31;;;;;;;58.40;31.65;;;7.70;58.50;;;;;;5091718;28;20118;-69
2022/01/27 08:51:57;;;;;;;55.15;30.90;;;7.70;57.80;;;;;;5091207;28;20537;-68
2022/01/27 08:54:24;;;;;;;49.10;28.35;;;7.60;57.60;;;;;;5090527;28;20028;-70
2022/01/27 08:56:50;;;;;;;58.40;30.20;;;7.60;57.50;;;;;;5089777;28;20028;-71
2022/01/27 08:59:16;;;;;;;49.65;29.27;;;7.50;57.90;;;;;;5089560;28;20450;-68
2022/01/27 09:01:43;;;;;;;51.45;29.38;;;7.50;57.60;;;;;;5084544;28;20062;-65
2022/01/27 09:04:09;;;;;;;52.42;28.75;;;7.60;57.90;;;;;;5082480;28;20043;-66
2022/01/27 09:06:35;;;;;;;50.85;29.73;;;7.70;57.10;;;;;;5085458;28;20061;-66
2022/01/27 09:09:03;;;;;;;48.65;28.67;;;7.80;56.50;;;;;;5089713;28;20040;-66
2022/01/27 09:11:30;;;;;;;45.95;27.08;;;7.80;56.60;;;;;;5081394;28;20085;-66
2022/01/27 09:14:00;;;;;;;47.22;27.55;;;7.90;56.10;;;;;;5084512;28;20161;-66
2022/01/27 09:16:27;;;;;;;47.60;27.25;;;8.00;56.90;;;;;;5085078;28;20035;-66
2022/01/27 09:19:00;;;;;;;48.03;26.80;;;8.00;56.10;;;;;;5087681;28;20039;-67
2022/01/27 09:21:33;;;;;;;44.40;26.17;;;8.10;55.50;;;;;;5082864;28;20040;-65
2022/01/27 09:23:59;;;;;;;43.72;25.25;;;8.10;55.10;;;;;;5063758;28;20037;-65
2022/01/27 09:29:09;;;;;;;43.90;26.15;;;8.10;55.20;;;;;;5060029;28;20513;-65
2022/01/27 09:31:35;;;;;;;41.58;24.45;;;8.20;54.50;;;;;;5051255;28;20028;-66
2022/01/27 09:34:02;;;;;;;42.33;24.02;;;8.20;53.90;;;;;;5066620;28;20052;-66
2022/01/27 09:36:27;;;;;;;37.95;23.00;;;8.30;53.90;;;;;;5078476;28;20022;-66
2022/01/27 09:38:53;;;;;;;39.72;23.58;;;8.40;53.20;;;;;;5056842;28;20029;-64
2022/01/27 09:41:20;;;;;;;37.33;22.23;;;8.50;53.40;;;;;;5050377;28;20021;-66
2022/01/27 09:43:53;;;;;;;35.38;21.55;;;8.70;52.60;;;;;;5048317;28;20445;-66
2022/01/27 09:46:23;;;;;;;41.08;23.75;;;8.90;51.50;;;;;;5065404;28;20058;-66
2022/01/27 09:48:50;;;;;;;34.78;21.42;;;8.90;51.30;;;;;;5053026;28;20510;-67
2022/01/27 09:53:45;;;;;;;34.42;20.85;;;9.00;50.30;;;;;;5070532;28;20039;-67
2022/01/27 09:56:11;;;;;;;41.92;21.40;;;8.90;50.50;;;;;;5068736;28;20035;-64
2022/01/27 09:58:36;;;;;;;35.88;20.13;;;8.90;50.50;;;;;;5067507;28;20084;-66
2022/01/27 10:01:04;;;;;;;35.70;20.70;;;8.90;50.40;;;;;;5056796;28;20075;-66
2022/01/27 10:03:30;;;;;;;35.75;21.13;;;8.90;50.40;;;;;;5054235;28;20043;-66
2022/01/27 10:06:12;;;;;;;39.40;21.30;;;9.00;50.60;;;;;;5041934;28;20037;-66
2022/01/27 10:08:41;;;;;;;44.30;19.55;;;9.10;50.10;;;;;;5058286;28;20059;-65
2022/01/27 10:11:15;;;;;;;31.75;19.08;;;9.10;50.10;;;;;;5064507;28;20025;-66
2022/01/27 10:13:43;;;;;;;34.88;21.60;;;9.10;49.30;;;;;;5066576;28;20079;-68
2022/01/27 10:16:29;;;;;;;36.63;21.05;;;9.20;49.90;;;;;;5063772;28;20021;-67
2022/01/27 10:19:08;;;;;;;38.90;18.88;;;9.30;49.20;;;;;;5071340;28;20017;-69
2022/01/27 10:21:36;;;;;;;30.20;19.20;;;9.40;49.00;;;;;;5070607;28;20028;-65
2022/01/27 10:24:25;;;;;;;27.67;18.20;;;9.50;48.90;;;;;;5061366;28;20032;-64
2022/01/27 10:27:17;;;;;;;33.95;19.73;;;9.50;48.30;;;;;;5059962;28;20025;-67
2022/01/27 10:32:37;;;;;;;37.95;19.08;;;9.60;47.90;;;;;;5064322;28;20032;-72
2022/01/27 10:35:04;;;;;;;26.27;17.48;;;9.50;48.30;;;;;;5065698;28;20048;-64
2022/01/27 10:37:52;;;;;;;31.65;17.73;;;9.50;47.30;;;;;;5070900;28;20033;-68
2022/01/27 10:40:38;;;;;;;28.50;16.60;;;9.50;47.50;;;;;;5051907;28;20032;-66
2022/01/27 10:43:12;;;;;;;22.85;15.05;;;9.40;47.00;;;;;;5046855;28;20052;-66
2022/01/27 10:46:04;;;;;;;28.65;17.02;;;9.40;46.70;;;;;;5055715;28;20103;-66
2022/01/27 10:48:32;;;;;;;26.27;15.10;;;9.30;46.50;;;;;;5067211;28;20020;-65
2022/01/27 10:51:13;;;;;;;24.95;15.23;;;9.40;47.10;;;;;;5058786;28;20515;-65
2022/01/27 10:53:55;;;;;;;25.65;15.10;;;9.50;46.50;;;;;;5053700;28;20025;-69
2022/01/27 10:56:27;;;;;;;30.77;17.85;;;9.50;46.80;;;;;;5066876;28;20346;-66
2022/01/27 10:58:56;;;;;;;35.97;19.00;;;9.60;47.10;;;;;;5037475;28;20418;-67
2022/01/27 11:01:26;;;;;;;27.05;16.58;;;9.60;47.50;;;;;;5049637;28;20470;-70
2022/01/27 11:03:53;;;;;;;31.15;17.55;;;9.70;47.00;;;;;;5050490;28;20078;-70
2022/01/27 11:06:25;;;;;;;27.85;16.90;;;9.80;47.30;;;;;;5036002;28;20094;-69
2022/01/27 11:08:54;;;;;;;28.65;17.80;;;9.90;46.60;;;;;;5053049;28;20039;-68
2022/01/27 11:11:27;;;;;;;27.73;17.30;;;9.90;46.90;;;;;;5041721;28;20043;-70
2022/01/27 11:13:55;;;;;;;31.92;18.30;;;9.90;47.10;;;;;;5063935;28;20501;-63
2022/01/27 11:16:28;;;;;;;31.23;19.25;;;10.10;46.10;;;;;;5061617;28;20050;-69
2022/01/27 11:19:01;;;;;;;30.60;17.30;;;10.30;45.90;;;;;;5063271;28;20107;-70
2022/01/27 11:21:34;;;;;;;27.95;16.38;;;10.40;46.30;;;;;;5057919;28;20109;-69
2022/01/27 11:24:07;;;;;;;25.27;16.30;;;10.30;45.80;;;;;;5080035;28;20040;-72
2022/01/27 11:26:40;;;;;;;25.20;16.35;;;10.20;45.50;;;;;;5084336;28;20427;-73
2022/01/27 11:29:08;;;;;;;28.42;16.00;;;10.10;45.50;;;;;;5077502;28;20036;-73
2022/01/27 11:32:04;;;;;;;27.83;15.45;;;10.10;46.30;;;;;;5074595;28;20028;-69
2022/01/27 11:34:52;;;;;;;26.08;16.50;;;9.90;46.70;;;;;;5076565;28;20077;-72
2022/01/27 11:37:36;;;;;;;38.25;16.50;;;10.00;45.90;;;;;;5073037;28;20429;-71
2022/01/27 11:40:11;;;;;;;29.13;16.70;;;9.90;46.10;;;;;;5087844;28;20052;-70
2022/01/27 11:42:41;;;;;;;22.77;14.98;;;9.90;46.30;;;;;;5083634;28;20028;-69
2022/01/27 11:45:29;;;;;;;28.00;17.05;;;9.90;45.80;;;;;;5091187;28;20055;-75
2022/01/27 11:48:01;;;;;;;24.67;16.00;;;9.90;46.00;;;;;;5108930;28;20161;-69
2022/01/27 11:50:37;;;;;;;24.70;16.25;;;9.90;46.70;;;;;;5092537;28;20380;-69
2022/01/27 11:53:02;;;;;;;24.33;15.02;;;9.90;46.10;;;;;;5082684;28;20429;-73
2022/01/27 11:55:29;;;;;;;24.40;16.40;;;10.00;45.80;;;;;;5088290;28;20035;-72
2022/01/27 11:57:56;;;;;;;25.73;14.70;;;10.00;45.70;;;;;;5076990;28;20032;-72
2022/01/27 12:00:26;;;;;;;27.88;15.13;;;10.10;45.20;;;;;;5081542;28;20032;-71
2022/01/27 12:03:01;;;;;;;22.35;13.70;;;10.10;45.50;;;;;;5089884;28;20073;-71
2022/01/27 12:05:35;;;;;;;23.00;13.65;;;10.20;45.60;;;;;;5084131;28;20032;-61
2022/01/27 12:08:12;;;;;;;21.95;14.23;;;10.50;44.10;;;;;;5086498;28;20028;-64
2022/01/27 12:10:49;;;;;;;21.88;13.45;;;10.50;43.50;;;;;;5077906;28;20036;-74
2022/01/27 12:13:41;;;;;;;23.30;14.10;;;10.50;43.50;;;;;;5087344;28;20031;-71
2022/01/27 12:19:09;;;;;;;20.98;13.43;;;11.40;43.00;;;;;;5089975;28;20039;-69
2022/01/27 12:21:43;;;;;;;21.52;12.52;;;12.40;39.70;;;;;;5084920;28;20128;-70
2022/01/27 12:24:16;;;;;;;24.20;13.10;;;12.10;40.90;;;;;;5067311;28;20033;-70
2022/01/27 12:27:05;;;;;;;20.35;11.50;;;11.70;40.30;;;;;;5033850;28;20068;-71
2022/01/27 12:29:40;;;;;;;20.58;11.32;;;11.30;40.30;;;;;;5067129;28;20103;-72
2022/01/27 12:32:17;;;;;;;23.48;12.48;;;11.10;40.90;;;;;;5064377;28;20043;-71
2022/01/27 12:34:54;;;;;;;18.15;11.30;;;11.10;40.80;;;;;;5036177;28;20025;-72
2022/01/27 12:37:23;;;;;;;15.98;10.30;;;11.00;40.90;;;;;;5046305;28;20024;-70
2022/01/27 12:39:52;;;;;;;21.77;11.18;;;11.00;41.20;;;;;;5055773;28;20028;-73
2022/01/27 12:42:18;;;;;;;19.98;10.52;;;10.90;40.80;;;;;;5058568;28;20025;-73
2022/01/27 12:45:12;;;;;;;22.05;10.30;;;10.90;40.50;;;;;;5073758;28;20032;-72
2022/01/27 12:47:48;;;;;;;21.30;10.73;;;10.90;40.70;;;;;;5053779;28;20043;-72
2022/01/27 12:50:19;;;;;;;17.75;10.55;;;10.80;41.10;;;;;;5049450;28;20349;-72
2022/01/27 12:52:47;;;;;;;18.92;10.95;;;10.70;41.20;;;;;;5050787;28;20368;-70
2022/01/27 12:55:21;;;;;;;21.60;10.65;;;10.70;41.60;;;;;;5050752;28;20123;-72
2022/01/27 12:57:55;;;;;;;18.42;10.13;;;10.70;42.60;;;;;;5046241;28;20066;-72
2022/01/27 13:00:21;;;;;;;17.60;11.15;;;10.70;41.20;;;;;;5045880;28;20047;-73
2022/01/27 13:02:47;;;;;;;17.75;10.88;;;10.70;41.50;;;;;;5047575;28;20414;-71
2022/01/27 13:05:12;;;;;;;23.52;10.40;;;10.70;41.30;;;;;;5065459;28;20123;-70
2022/01/27 13:07:41;;;;;;;21.92;10.30;;;10.70;40.80;;;;;;5071101;28;20028;-70
2022/01/27 13:10:11;;;;;;;19.70;11.23;;;10.70;40.70;;;;;;5058854;28;20632;-71
2022/01/27 13:12:49;;;;;;;18.10;10.35;;;10.70;40.80;;;;;;5040930;28;20024;-69
2022/01/27 13:15:21;;;;;;;22.25;10.88;;;10.70;40.80;;;;;;5067997;28;20032;-71
2022/01/27 13:17:53;;;;;;;17.15;10.45;;;10.80;40.50;;;;;;5040734;28;20156;-73
2022/01/27 13:20:27;;;;;;;27.67;10.10;;;10.70;40.80;;;;;;5053799;28;20124;-70
2022/01/27 13:23:12;;;;;;;21.83;10.88;;;10.70;41.80;;;;;;5080628;28;20087;-69
2022/01/27 13:25:42;;;;;;;17.67;10.98;;;10.70;41.20;;;;;;5084149;28;20107;-71
2022/01/27 13:28:19;;;;;;;20.55;10.73;;;10.70;41.00;;;;;;5084855;28;20028;-69
2022/01/27 13:30:50;;;;;;;18.08;10.15;;;10.80;41.10;;;;;;5087774;28;20111;-68
2022/01/27 13:33:19;;;;;;;18.75;10.80;;;10.90;40.50;;;;;;5093258;28;20341;-70
2022/01/27 13:35:46;;;;;;;20.55;11.30;;;10.90;40.90;;;;;;5089201;28;20406;-72